Flight Track Log - Related Links

Times and Time Zones

All times are in EDT time to prevent confusion due to time zone crossing. See the EJA396 flight status page for this flight to view local times or setup timezone preferences in your user account.

Time Position Orientation Groundspeed Altitude Reporting Facility
EDT Latitude Longitude Course Direction KTS MPH feet Rate Location/Type
Sun 03:44:20 PM 38.1019 -85.7022 167° South 244 281 5,400  Level Indianapolis Center
Sun 03:45:21 PM 38.0800 -85.6128 107° East 268 308 9,500 3,707 Climbing Indianapolis Center
Sun 03:46:23 PM 38.0781 -85.5003 91° East 316 364 13,000 3,290 Climbing Indianapolis Center
Sun 03:47:25 PM 38.0947 -85.3856 80° East 344 396 16,300 2,806 Climbing Indianapolis Center
Sun 03:48:27 PM 38.1469 -85.2461 65° Northeast 367 422 18,800 2,081 Climbing Indianapolis Center
Sun 03:49:29 PM 38.1908 -85.1308 64° Northeast 389 448 20,600 1,694 Climbing Indianapolis Center
Sun 03:50:31 PM 38.2497 -84.9706 65° Northeast 423 487 22,300 2,274 Climbing Indianapolis Center
Sun 03:51:33 PM 38.3017 -84.8353 64° Northeast 423 487 25,300 2,468 Climbing Indianapolis Center
Sun 03:52:35 PM 38.3500 -84.7056 65° Northeast 408 470 27,400 1,645 Climbing Indianapolis Center
Sun 03:53:37 PM 38.3967 -84.5775 65° Northeast 402 463 28,700 1,113 Climbing Indianapolis Center
Sun 03:54:39 PM 38.4447 -84.4456 65° Northeast 405 466 29,700 976 Climbing Indianapolis Center
Sun 03:55:40 PM 38.4944 -84.3078 65° Northeast 416 479 30,700 976 Climbing Indianapolis Center
Sun 03:56:42 PM 38.5478 -84.1642 65° Northeast 430 495 31,700 1,258 Climbing Indianapolis Center
Sun 03:57:44 PM 38.6100 -83.9911 65° Northeast 453 521 33,300 1,500 Climbing Indianapolis Center
Sun 03:58:46 PM 38.6658 -83.8383 65° Northeast 464 534 34,800 1,452 Climbing Indianapolis Center
Sun 03:59:48 PM 38.7194 -83.6872 66° East 463 533 36,300 1,065 Climbing Indianapolis Center
Sun 04:00:50 PM 38.7742 -83.5353 65° Northeast 467 537 37,000 341 Climbing Indianapolis Center
Sun 04:01:51 PM 38.8311 -83.3739 66° East 487 560 37,000  Level Indianapolis Center
Sun 04:02:53 PM 38.8889 -83.2089 66° East 501 577 37,000  Level Indianapolis Center
Sun 04:03:55 PM 38.9492 -83.0372 66° East 504 580 37,000 -194 Level Indianapolis Center
Sun 04:04:57 PM 39.0064 -82.8736 66° East 502 578 36,600 -484 Descending Indianapolis Center
Sun 04:05:59 PM 39.0622 -82.7108 66° East 498 573 36,000 -293 Descending Indianapolis Center
Sun 04:07:00 PM 39.1192 -82.5481 66° East 496 571 36,000  Level Indianapolis Center
Sun 04:08:02 PM 39.1747 -82.3847 66° East 497 572 36,000  Level Indianapolis Center
Sun 04:09:04 PM 39.2439 -82.1836 66° East 506 582 36,000 -97 Level Indianapolis Center
Sun 04:10:06 PM 39.3006 -82.0167 66° East 504 580 35,800 -484 Descending Indianapolis Center
Sun 04:11:08 PM 39.3575 -81.8497 66° East 505 581 35,000 -390 Descending Indianapolis Center
Sun 04:12:09 PM 39.4136 -81.6825 66° East 504 580 35,000  Level Indianapolis Center
Sun 04:13:11 PM 39.4706 -81.5122 67° East 510 587 35,000  Level Indianapolis Center
Sun 04:14:13 PM 39.5261 -81.3425 67° East 510 587 35,000  Level Indianapolis Center
Sun 04:15:15 PM 39.5814 -81.1717 67° East 511 588 35,000  Level Indianapolis Center
Sun 04:16:17 PM 39.6372 -81.0036 67° East 508 585 35,000  Level Indianapolis Center
Sun 04:17:19 PM 39.6917 -80.8339 67° East 508 585 35,000  Level Indianapolis Center
Sun 04:18:21 PM 39.7572 -80.6308 67° East 507 583 35,000  Level Indianapolis Center
Sun 04:19:23 PM 39.8117 -80.4606 67° East 508 585 35,000  Level Indianapolis Center
Sun 04:20:32 PM 39.8708 -80.2800 67° East 502 578 35,000  Level Cleveland Center
Sun 04:21:32 PM 39.9264 -80.1094 67° East 502 578 35,000  Level Cleveland Center
Sun 04:22:32 PM 39.9839 -79.9219 68° East 501 577 35,000  Level Cleveland Center
Sun 04:23:32 PM 40.0369 -79.7561 67° East 501 577 35,000  Level Cleveland Center
Sun 04:24:32 PM 40.0900 -79.5817 68° East 501 577 35,000  Level Cleveland Center
Sun 04:25:32 PM 40.1444 -79.4125 67° East 501 577 35,000  Level Cleveland Center
Sun 04:26:32 PM 40.1947 -79.2431 69° East 501 577 35,000  Level Cleveland Center
Sun 04:27:32 PM 40.2467 -79.0681 69° East 496 571 35,000  Level Cleveland Center
Sun 04:28:32 PM 40.2986 -78.8953 68° East 501 577 35,000 -100 Level Cleveland Center
Sun 04:29:32 PM 40.3164 -78.7097 83° East 501 577 34,800 -1,150 Descending Cleveland Center
Sun 04:30:32 PM 40.3156 -78.5272 90° East 501 577 32,700 -2,530 Descending Cleveland Center
Sun 04:32:18 PM 40.3139 -78.1892 90° East 508 585 27,800 -2,695 Descending New York Center
Sun 04:33:19 PM 40.3128 -78.0067 90° East 513 590 25,200 -1,388 Descending New York Center
Sun 04:34:19 PM 40.3111 -77.8267 91° East 508 585 25,000 -836 Descending New York Center
Sun 04:35:21 PM 40.2983 -77.6567 96° East 497 572 23,500 -1,563 Descending New York Center
Sun 04:36:18 PM 40.2789 -77.4861 98° East 478 550 21,900 -1,641 Descending New York Center
Sun 04:37:18 PM 40.2567 -77.3233 100° East 462 532 20,300 -1,574 Descending New York Center
Sun 04:38:20 PM 40.2394 -77.1831 99° East 435 501 18,700 -1,574 Descending New York Center
Sun 04:39:20 PM 40.2172 -77.0150 100° East 429 494 17,100 -843 Descending New York Center
Sun 04:40:21 PM 40.1992 -76.8803 100° East 422 486 17,000 -555 Descending New York Center
Sun 04:41:19 PM 40.1781 -76.7208 100° East 412 474 16,000 -1,513 Descending New York Center
Sun 04:42:20 PM 40.1600 -76.5833 100° East 394 453 14,000 -1,918 Descending New York Center
Sun 04:43:21 PM 40.1417 -76.4461 100° East 385 443 12,100 -1,017 Descending New York Center
Sun 04:44:18 PM 40.1244 -76.3250 100° East 378 435 12,000 -50 Descending New York Center
Sun 04:45:20 PM 40.1142 -76.1886 96° East 373 429 12,000  Level New York Center
Sun 04:46:20 PM 40.1042 -76.0386 95° East 373 429 12,000 -864 Level New York Center
Sun 04:47:18 PM 40.0953 -75.9131 95° East 360 414 10,300 -1,765 Descending New York Center
Sun 04:48:19 PM 40.0853 -75.8064 97° East 325 374 8,500 -1,884 Descending New York Center
Sun 04:49:19 PM 40.0917 -75.7011 85° East 291 335 6,500 -1,785 Descending New York Center
Sun 04:50:20 PM 40.1083 -75.6017 78° East 285 328 4,900 -1,438 Descending New York Center
Sun 04:51:20 PM 40.1225 -75.5106 78° East 263 303 3,600 -942 Descending New York Center
Sun 04:52:21 PM 40.1381 -75.4328 75° East 232 267 3,000 -305 Descending New York Center
Sun 04:53:18 PM 40.1286 -75.3561 99° East 208 239 3,000  Level New York Center
Sun 04:54:18 PM 40.1147 -75.2819 104° East 213 245 3,000  Level New York Center
Sun 04:54:52 PM 40.1167 -75.2500 85° East 170 196 3,000 -255 Level Philadelphia TRACON
Sun 04:55:52 PM 40.1000 -75.1667 105° East 221 254 2,600 -600 Descending Philadelphia TRACON
Sun 04:56:52 PM 40.0833 -75.1167 114° Southeast 173 199 1,800 -700 Descending Philadelphia TRACON
Sun 04:57:52 PM 40.0667 -75.0667 114° Southeast 114 131 1,200 4,364 Descending Philadelphia TRACON
Sun 05:00:21 PM 40.0261 -74.9725 119° Southeast 128 147 17,000 4,602 Climbing New York Center
Sun 05:01:18 PM 40.0131 -74.9311 112° Southeast 128 147 17,000  Level New York Center

Login

Don't have an account? Register now (free) for customized features, flight alerts, and more!